Tindal, Australia
Current Conditions -  °F | °C
As of 5:00 PM on Tuesday 27 Jan 2015 (Local Time) from YPTN Reporting Station
Scattered Clouds Scattered Clouds  
Wind Chill: 86°   Ceiling: Unl
Heat Index: 97°   Visibility: 6mi
Dew Point: 77°   Wind: 0mph
Humidity: 74%   Direction: NA
Pressure: 29.59"   Gusts: NA
Location:  14.52°S, 132.38°E
Report Text: YPTN 270800Z 00000KT 9999 FEW025 SCT300 30/25 Q1002
Loading
Personal Weather Stations






























Interactive Weather Map New forecast layout! Learn more

10-Day Weather Forecast

Advertisements
Track Severe Weather on mobile